sensor_id;sensor_type;location;lat;lon;timestamp;pressure;altitude;pressure_sealevel;temperature;humidity
60417;BME280;46263;44.726;10.396;2024-01-30T00:00:42;102559.84;;;5.95;79.91
60417;BME280;46263;44.726;10.396;2024-01-30T00:03:08;102560.91;;;5.69;81.29
60417;BME280;46263;44.726;10.396;2024-01-30T00:05:33;102558.81;;;5.57;81.87
60417;BME280;46263;44.726;10.396;2024-01-30T00:07:59;102565.78;;;5.81;81.09
60417;BME280;46263;44.726;10.396;2024-01-30T00:10:24;102559.69;;;5.86;80.57
60417;BME280;46263;44.726;10.396;2024-01-30T00:12:50;102569.72;;;5.96;80.08
60417;BME280;46263;44.726;10.396;2024-01-30T00:15:15;102561.72;;;5.98;79.72
60417;BME280;46263;44.726;10.396;2024-01-30T00:17:41;102559.06;;;5.95;79.94
60417;BME280;46263;44.726;10.396;2024-01-30T00:20:06;102556.44;;;6.04;79.04
60417;BME280;46263;44.726;10.396;2024-01-30T00:22:34;102561.31;;;6.00;79.13
60417;BME280;46263;44.726;10.396;2024-01-30T00:25:00;102554.31;;;5.95;79.57
60417;BME280;46263;44.726;10.396;2024-01-30T00:27:26;102556.00;;;5.77;79.30
60417;BME280;46263;44.726;10.396;2024-01-30T00:29:52;102566.81;;;5.71;79.80
60417;BME280;46263;44.726;10.396;2024-01-30T00:32:17;102561.75;;;5.82;79.21
60417;BME280;46263;44.726;10.396;2024-01-30T00:34:44;102567.00;;;5.80;79.27
60417;BME280;46263;44.726;10.396;2024-01-30T00:37:09;102570.44;;;5.84;78.73
60417;BME280;46263;44.726;10.396;2024-01-30T00:39:35;102569.94;;;5.89;78.68
60417;BME280;46263;44.726;10.396;2024-01-30T00:42:00;102567.31;;;5.82;79.09
60417;BME280;46263;44.726;10.396;2024-01-30T00:44:26;102576.69;;;5.88;78.54
60417;BME280;46263;44.726;10.396;2024-01-30T00:46:51;102580.69;;;5.87;78.48
60417;BME280;46263;44.726;10.396;2024-01-30T00:49:17;102574.31;;;5.87;78.28
60417;BME280;46263;44.726;10.396;2024-01-30T00:51:42;102581.44;;;5.88;77.91
60417;BME280;46263;44.726;10.396;2024-01-30T00:54:08;102585.88;;;5.69;78.67
60417;BME280;46263;44.726;10.396;2024-01-30T00:56:33;102584.56;;;5.58;79.01
60417;BME280;46263;44.726;10.396;2024-01-30T00:58:59;102583.09;;;5.53;79.56
60417;BME280;46263;44.726;10.396;2024-01-30T01:01:24;102586.06;;;5.47;79.28
60417;BME280;46263;44.726;10.396;2024-01-30T01:03:50;102594.28;;;5.18;81.00
60417;BME280;46263;44.726;10.396;2024-01-30T01:06:15;102587.59;;;5.16;80.51
60417;BME280;46263;44.726;10.396;2024-01-30T01:08:41;102578.59;;;5.12;80.84
60417;BME280;46263;44.726;10.396;2024-01-30T01:11:06;102585.50;;;5.20;79.80
60417;BME280;46263;44.726;10.396;2024-01-30T01:13:32;102588.47;;;5.29;78.99
60417;BME280;46263;44.726;10.396;2024-01-30T01:15:57;102585.59;;;5.16;79.73
60417;BME280;46263;44.726;10.396;2024-01-30T01:18:22;102586.81;;;5.15;78.96
60417;BME280;46263;44.726;10.396;2024-01-30T01:20:48;102585.88;;;5.22;78.71
60417;BME280;46263;44.726;10.396;2024-01-30T01:23:14;102592.25;;;5.19;79.24
60417;BME280;46263;44.726;10.396;2024-01-30T01:25:39;102592.25;;;5.19;78.93
60417;BME280;46263;44.726;10.396;2024-01-30T01:28:05;102593.34;;;5.25;77.92
60417;BME280;46263;44.726;10.396;2024-01-30T01:30:30;102589.31;;;5.26;77.89
60417;BME280;46263;44.726;10.396;2024-01-30T01:32:56;102587.94;;;5.18;77.95
60417;BME280;46263;44.726;10.396;2024-01-30T01:35:23;102584.94;;;5.28;77.78
60417;BME280;46263;44.726;10.396;2024-01-30T01:37:54;102577.75;;;5.31;77.91
60417;BME280;46263;44.726;10.396;2024-01-30T01:40:23;102588.72;;;5.18;77.93
60417;BME280;46263;44.726;10.396;2024-01-30T01:42:53;102587.44;;;5.23;77.87
60417;BME280;46263;44.726;10.396;2024-01-30T01:45:19;102588.47;;;5.29;77.56
60417;BME280;46263;44.726;10.396;2024-01-30T01:47:48;102586.91;;;5.28;77.20
60417;BME280;46263;44.726;10.396;2024-01-30T01:50:16;102581.97;;;5.19;77.59
60417;BME280;46263;44.726;10.396;2024-01-30T01:52:48;102579.78;;;5.11;78.13
60417;BME280;46263;44.726;10.396;2024-01-30T01:55:15;102583.13;;;4.86;77.36
60417;BME280;46263;44.726;10.396;2024-01-30T01:57:42;102583.81;;;4.90;77.30
60417;BME280;46263;44.726;10.396;2024-01-30T02:00:09;102589.28;;;4.94;76.39
60417;BME280;46263;44.726;10.396;2024-01-30T02:02:36;102579.25;;;4.84;77.09
60417;BME280;46263;44.726;10.396;2024-01-30T02:05:02;102577.47;;;4.74;76.64
60417;BME280;46263;44.726;10.396;2024-01-30T02:07:29;102572.75;;;4.55;77.82
60417;BME280;46263;44.726;10.396;2024-01-30T02:09:55;102572.06;;;4.51;78.84
60417;BME280;46263;44.726;10.396;2024-01-30T02:12:20;102579.25;;;4.65;78.25
60417;BME280;46263;44.726;10.396;2024-01-30T02:14:47;102571.31;;;4.67;78.35
60417;BME280;46263;44.726;10.396;2024-01-30T02:17:13;102565.38;;;4.29;78.75
60417;BME280;46263;44.726;10.396;2024-01-30T02:19:39;102570.34;;;4.18;78.27
60417;BME280;46263;44.726;10.396;2024-01-30T02:22:05;102569.56;;;4.18;78.18
60417;BME280;46263;44.726;10.396;2024-01-30T02:24:31;102565.50;;;4.22;78.55
60417;BME280;46263;44.726;10.396;2024-01-30T02:26:56;102559.44;;;4.11;78.86
60417;BME280;46263;44.726;10.396;2024-01-30T02:29:22;102562.69;;;4.06;79.96
60417;BME280;46263;44.726;10.396;2024-01-30T02:31:47;102559.56;;;4.24;80.34
60417;BME280;46263;44.726;10.396;2024-01-30T02:34:13;102567.59;;;4.38;79.36
60417;BME280;46263;44.726;10.396;2024-01-30T02:36:42;102570.00;;;4.36;79.63
60417;BME280;46263;44.726;10.396;2024-01-30T02:39:08;102557.28;;;4.38;78.86
60417;BME280;46263;44.726;10.396;2024-01-30T02:41:33;102559.44;;;4.31;77.67
60417;BME280;46263;44.726;10.396;2024-01-30T02:43:59;102560.13;;;4.35;77.18
60417;BME280;46263;44.726;10.396;2024-01-30T02:46:24;102558.63;;;4.30;76.58
60417;BME280;46263;44.726;10.396;2024-01-30T02:48:50;102558.00;;;4.23;76.18
60417;BME280;46263;44.726;10.396;2024-01-30T02:51:16;102553.69;;;4.02;77.32
60417;BME280;46263;44.726;10.396;2024-01-30T02:53:41;102548.69;;;4.13;77.36
60417;BME280;46263;44.726;10.396;2024-01-30T02:56:07;102548.38;;;4.11;76.89
60417;BME280;46263;44.726;10.396;2024-01-30T02:58:39;102547.44;;;4.18;77.44
60417;BME280;46263;44.726;10.396;2024-01-30T03:01:04;102551.47;;;4.33;77.26
60417;BME280;46263;44.726;10.396;2024-01-30T03:03:30;102555.56;;;4.25;77.33
60417;BME280;46263;44.726;10.396;2024-01-30T03:05:55;102552.47;;;4.03;78.53
60417;BME280;46263;44.726;10.396;2024-01-30T03:08:21;102550.03;;;4.05;78.79
60417;BME280;46263;44.726;10.396;2024-01-30T03:10:46;102550.56;;;4.00;79.46
60417;BME280;46263;44.726;10.396;2024-01-30T03:13:12;102554.66;;;4.12;79.79
60417;BME280;46263;44.726;10.396;2024-01-30T03:15:37;102554.16;;;4.17;79.53
60417;BME280;46263;44.726;10.396;2024-01-30T03:18:03;102553.47;;;4.32;79.98
60417;BME280;46263;44.726;10.396;2024-01-30T03:20:31;102549.69;;;4.42;79.96
60417;BME280;46263;44.726;10.396;2024-01-30T03:22:57;102553.47;;;4.32;80.79
60417;BME280;46263;44.726;10.396;2024-01-30T03:25:24;102554.88;;;4.40;80.25
60417;BME280;46263;44.726;10.396;2024-01-30T03:27:50;102550.03;;;4.44;79.22
60417;BME280;46263;44.726;10.396;2024-01-30T03:30:15;102557.78;;;4.53;79.49
60417;BME280;46263;44.726;10.396;2024-01-30T03:32:41;102560.34;;;4.44;78.98
60417;BME280;46263;44.726;10.396;2024-01-30T03:35:06;102558.63;;;4.30;79.72
60417;BME280;46263;44.726;10.396;2024-01-30T03:37:32;102551.19;;;4.27;78.15
60417;BME280;46263;44.726;10.396;2024-01-30T03:39:57;102556.00;;;4.23;77.71
60417;BME280;46263;44.726;10.396;2024-01-30T03:42:23;102549.94;;;4.32;77.96
60417;BME280;46263;44.726;10.396;2024-01-30T03:44:48;102550.84;;;4.25;78.23
60417;BME280;46263;44.726;10.396;2024-01-30T03:47:17;102552.41;;;4.26;78.73
60417;BME280;46263;44.726;10.396;2024-01-30T03:49:42;102556.94;;;4.17;79.56
60417;BME280;46263;44.726;10.396;2024-01-30T03:52:08;102549.56;;;4.10;80.35
60417;BME280;46263;44.726;10.396;2024-01-30T03:54:33;102548.63;;;3.97;80.51
60417;BME280;46263;44.726;10.396;2024-01-30T03:56:59;102553.91;;;4.11;80.37
60417;BME280;46263;44.726;10.396;2024-01-30T03:59:24;102545.94;;;4.13;80.17
60417;BME280;46263;44.726;10.396;2024-01-30T04:01:50;102544.22;;;4.00;81.16
60417;BME280;46263;44.726;10.396;2024-01-30T04:04:19;102546.00;;;4.10;81.12
60417;BME280;46263;44.726;10.396;2024-01-30T04:06:44;102543.88;;;3.98;81.32
60417;BME280;46263;44.726;10.396;2024-01-30T04:09:10;102545.22;;;3.90;81.96
60417;BME280;46263;44.726;10.396;2024-01-30T04:11:36;102547.63;;;3.88;82.03
60417;BME280;46263;44.726;10.396;2024-01-30T04:14:02;102550.84;;;3.41;83.17
60417;BME280;46263;44.726;10.396;2024-01-30T04:16:28;102547.84;;;3.32;84.79
60417;BME280;46263;44.726;10.396;2024-01-30T04:18:54;102554.78;;;3.17;85.57
60417;BME280;46263;44.726;10.396;2024-01-30T04:21:21;102543.22;;;3.25;84.88
60417;BME280;46263;44.726;10.396;2024-01-30T04:23:46;102541.00;;;3.40;83.80
60417;BME280;46263;44.726;10.396;2024-01-30T04:26:12;102536.91;;;3.48;83.17
60417;BME280;46263;44.726;10.396;2024-01-30T04:28:37;102538.13;;;3.47;82.99
60417;BME280;46263;44.726;10.396;2024-01-30T04:31:03;102539.97;;;3.53;82.35
60417;BME280;46263;44.726;10.396;2024-01-30T04:33:28;102542.41;;;3.51;82.25
60417;BME280;46263;44.726;10.396;2024-01-30T04:35:54;102544.50;;;3.44;83.68
60417;BME280;46263;44.726;10.396;2024-01-30T04:38:19;102543.28;;;3.45;83.00
60417;BME280;46263;44.726;10.396;2024-01-30T04:40:45;102541.47;;;3.35;83.41
60417;BME280;46263;44.726;10.396;2024-01-30T04:43:10;102548.38;;;3.46;83.24
60417;BME280;46263;44.726;10.396;2024-01-30T04:45:36;102538.13;;;3.47;83.23
60417;BME280;46263;44.726;10.396;2024-01-30T04:48:01;102540.59;;;3.41;83.62
60417;BME280;46263;44.726;10.396;2024-01-30T04:50:26;102545.19;;;3.48;83.78
60417;BME280;46263;44.726;10.396;2024-01-30T04:52:52;102539.69;;;3.71;83.14
60417;BME280;46263;44.726;10.396;2024-01-30T04:55:17;102537.97;;;3.77;83.06
60417;BME280;46263;44.726;10.396;2024-01-30T04:57:43;102535.38;;;3.89;82.48
60417;BME280;46263;44.726;10.396;2024-01-30T05:00:09;102534.50;;;3.92;81.84
60417;BME280;46263;44.726;10.396;2024-01-30T05:02:35;102538.81;;;3.74;82.14
60417;BME280;46263;44.726;10.396;2024-01-30T05:05:00;102539.25;;;3.92;81.85
60417;BME280;46263;44.726;10.396;2024-01-30T05:07:26;102532.75;;;4.01;81.62
60417;BME280;46263;44.726;10.396;2024-01-30T05:09:51;102530.41;;;4.00;81.32
60417;BME280;46263;44.726;10.396;2024-01-30T05:12:17;102545.19;;;3.71;81.69
60417;BME280;46263;44.726;10.396;2024-01-30T05:14:42;102541.88;;;3.79;82.03
60417;BME280;46263;44.726;10.396;2024-01-30T05:17:08;102539.75;;;3.67;82.16
60417;BME280;46263;44.726;10.396;2024-01-30T05:19:35;102538.72;;;3.58;82.04
60417;BME280;46263;44.726;10.396;2024-01-30T05:22:01;102553.13;;;3.69;81.15
60417;BME280;46263;44.726;10.396;2024-01-30T05:24:26;102550.00;;;3.44;81.82
60417;BME280;46263;44.726;10.396;2024-01-30T05:26:52;102557.94;;;3.19;82.72
60417;BME280;46263;44.726;10.396;2024-01-30T05:29:17;102557.19;;;3.15;82.96
60417;BME280;46263;44.726;10.396;2024-01-30T05:31:43;102555.84;;;3.26;82.99
60417;BME280;46263;44.726;10.396;2024-01-30T05:34:08;102553.66;;;3.37;82.57
60417;BME280;46263;44.726;10.396;2024-01-30T05:36:34;102563.56;;;3.12;82.21
60417;BME280;46263;44.726;10.396;2024-01-30T05:39:00;102554.41;;;3.15;81.97
60417;BME280;46263;44.726;10.396;2024-01-30T05:41:25;102553.47;;;3.25;81.99
60417;BME280;46263;44.726;10.396;2024-01-30T05:43:51;102559.31;;;3.30;81.47
60417;BME280;46263;44.726;10.396;2024-01-30T05:46:16;102552.91;;;3.37;81.16
60417;BME280;46263;44.726;10.396;2024-01-30T05:48:42;102552.78;;;3.44;80.65
60417;BME280;46263;44.726;10.396;2024-01-30T05:51:07;102557.63;;;3.36;81.09
60417;BME280;46263;44.726;10.396;2024-01-30T05:53:33;102554.47;;;3.38;81.35
60417;BME280;46263;44.726;10.396;2024-01-30T05:56:01;102555.34;;;3.31;81.39
60417;BME280;46263;44.726;10.396;2024-01-30T05:58:26;102556.69;;;3.46;80.99
60417;BME280;46263;44.726;10.396;2024-01-30T06:00:52;102561.66;;;3.32;81.14
60417;BME280;46263;44.726;10.396;2024-01-30T06:03:17;102557.88;;;3.45;80.72
60417;BME280;46263;44.726;10.396;2024-01-30T06:05:43;102565.41;;;3.45;80.72
60417;BME280;46263;44.726;10.396;2024-01-30T06:08:08;102566.09;;;3.49;80.35
60417;BME280;46263;44.726;10.396;2024-01-30T06:10:34;102555.78;;;3.53;79.95
60417;BME280;46263;44.726;10.396;2024-01-30T06:12:59;102571.41;;;3.13;81.57
60417;BME280;46263;44.726;10.396;2024-01-30T06:15:25;102567.91;;;3.36;81.20
60417;BME280;46263;44.726;10.396;2024-01-30T06:17:51;102568.97;;;3.19;81.03
60417;BME280;46263;44.726;10.396;2024-01-30T06:20:16;102568.03;;;3.29;81.20
60417;BME280;46263;44.726;10.396;2024-01-30T06:22:42;102568.53;;;3.47;80.41
60417;BME280;46263;44.726;10.396;2024-01-30T06:25:07;102571.81;;;3.38;80.52
60417;BME280;46263;44.726;10.396;2024-01-30T06:27:33;102568.88;;;3.49;80.58
60417;BME280;46263;44.726;10.396;2024-01-30T06:29:58;102569.16;;;3.54;79.89
60417;BME280;46263;44.726;10.396;2024-01-30T06:32:24;102576.50;;;3.41;79.89
60417;BME280;46263;44.726;10.396;2024-01-30T06:34:49;102574.09;;;3.43;79.87
60417;BME280;46263;44.726;10.396;2024-01-30T06:37:15;102577.50;;;3.28;80.76
60417;BME280;46263;44.726;10.396;2024-01-30T06:39:40;102578.97;;;3.36;80.64
60417;BME280;46263;44.726;10.396;2024-01-30T06:42:06;102585.44;;;3.26;81.64
60417;BME280;46263;44.726;10.396;2024-01-30T06:44:31;102590.84;;;3.33;81.61
60417;BME280;46263;44.726;10.396;2024-01-30T06:46:57;102585.66;;;3.12;81.27
60417;BME280;46263;44.726;10.396;2024-01-30T06:49:22;102586.31;;;3.19;81.49
60417;BME280;46263;44.726;10.396;2024-01-30T06:51:47;102593.06;;;3.18;81.06
60417;BME280;46263;44.726;10.396;2024-01-30T06:54:13;102591.00;;;3.22;83.91
60417;BME280;46263;44.726;10.396;2024-01-30T06:56:39;102598.00;;;3.30;81.34
60417;BME280;46263;44.726;10.396;2024-01-30T06:59:04;102604.84;;;3.45;80.93
60417;BME280;46263;44.726;10.396;2024-01-30T07:01:30;102602.41;;;3.51;80.43
60417;BME280;46263;44.726;10.396;2024-01-30T07:03:56;102603.66;;;3.46;80.10
60417;BME280;46263;44.726;10.396;2024-01-30T07:06:22;102595.66;;;3.29;80.72
60417;BME280;46263;44.726;10.396;2024-01-30T07:08:49;102591.59;;;3.37;80.77
60417;BME280;46263;44.726;10.396;2024-01-30T07:11:21;102603.47;;;3.34;80.63
60417;BME280;46263;44.726;10.396;2024-01-30T07:13:47;102600.38;;;3.28;80.26
60417;BME280;46263;44.726;10.396;2024-01-30T07:16:14;102598.56;;;3.45;80.39
60417;BME280;46263;44.726;10.396;2024-01-30T07:18:39;102596.56;;;3.45;80.11
60417;BME280;46263;44.726;10.396;2024-01-30T07:21:05;102605.91;;;3.55;80.22
60417;BME280;46263;44.726;10.396;2024-01-30T07:23:30;102599.88;;;3.60;79.93
60417;BME280;46263;44.726;10.396;2024-01-30T07:25:56;102607.78;;;3.81;79.65
60417;BME280;46263;44.726;10.396;2024-01-30T07:28:21;102599.44;;;3.84;79.02
60417;BME280;46263;44.726;10.396;2024-01-30T07:30:47;102607.91;;;3.96;79.00
60417;BME280;46263;44.726;10.396;2024-01-30T07:33:13;102606.28;;;3.99;78.91
60417;BME280;46263;44.726;10.396;2024-01-30T07:35:39;102609.13;;;3.95;78.46
60417;BME280;46263;44.726;10.396;2024-01-30T07:38:04;102605.94;;;3.74;79.41
60417;BME280;46263;44.726;10.396;2024-01-30T07:40:30;102610.16;;;3.59;79.62
60417;BME280;46263;44.726;10.396;2024-01-30T07:42:55;102613.56;;;3.67;79.53
60417;BME280;46263;44.726;10.396;2024-01-30T07:45:21;102606.47;;;3.66;79.94
60417;BME280;46263;44.726;10.396;2024-01-30T07:47:51;102612.63;;;3.77;80.08
60417;BME280;46263;44.726;10.396;2024-01-30T07:50:17;102622.41;;;4.04;79.63
60417;BME280;46263;44.726;10.396;2024-01-30T07:52:43;102622.91;;;4.18;79.72
60417;BME280;46263;44.726;10.396;2024-01-30T07:55:09;102614.41;;;3.87;80.72
60417;BME280;46263;44.726;10.396;2024-01-30T07:57:34;102613.31;;;3.81;81.15
60417;BME280;46263;44.726;10.396;2024-01-30T08:00:02;102622.28;;;3.88;82.34
60417;BME280;46263;44.726;10.396;2024-01-30T08:02:28;102612.63;;;3.77;82.41
60417;BME280;46263;44.726;10.396;2024-01-30T08:04:54;102621.06;;;3.43;83.67
60417;BME280;46263;44.726;10.396;2024-01-30T08:07:19;102619.84;;;3.44;84.88
60417;BME280;46263;44.726;10.396;2024-01-30T08:09:46;102616.03;;;3.12;85.29
60417;BME280;46263;44.726;10.396;2024-01-30T08:12:12;102615.75;;;3.29;86.12
60417;BME280;46263;44.726;10.396;2024-01-30T08:14:38;102611.44;;;3.28;85.33
60417;BME280;46263;44.726;10.396;2024-01-30T08:17:05;102615.50;;;3.70;84.47
60417;BME280;46263;44.726;10.396;2024-01-30T08:19:30;102622.69;;;3.64;84.05
60417;BME280;46263;44.726;10.396;2024-01-30T08:21:55;102616.34;;;3.67;84.28
60417;BME280;46263;44.726;10.396;2024-01-30T08:24:21;102617.22;;;4.06;83.49
60417;BME280;46263;44.726;10.396;2024-01-30T08:26:46;102614.69;;;4.34;82.36
60417;BME280;46263;44.726;10.396;2024-01-30T08:29:12;102609.25;;;4.50;81.23
60417;BME280;46263;44.726;10.396;2024-01-30T08:31:37;102611.28;;;4.27;81.89
60417;BME280;46263;44.726;10.396;2024-01-30T08:34:03;102612.19;;;4.20;82.13
60417;BME280;46263;44.726;10.396;2024-01-30T08:36:28;102616.66;;;4.34;82.26
60417;BME280;46263;44.726;10.396;2024-01-30T08:38:53;102612.69;;;4.54;82.10
60417;BME280;46263;44.726;10.396;2024-01-30T08:41:19;102612.75;;;4.70;81.55
60417;BME280;46263;44.726;10.396;2024-01-30T08:43:45;102616.53;;;4.79;80.42
60417;BME280;46263;44.726;10.396;2024-01-30T08:46:11;102617.91;;;5.07;80.29
60417;BME280;46263;44.726;10.396;2024-01-30T08:48:36;102618.78;;;5.20;79.46
60417;BME280;46263;44.726;10.396;2024-01-30T08:51:02;102620.97;;;5.28;79.80
60417;BME280;46263;44.726;10.396;2024-01-30T08:53:27;102622.59;;;5.26;79.87
60417;BME280;46263;44.726;10.396;2024-01-30T08:55:53;102625.41;;;5.06;81.66
60417;BME280;46263;44.726;10.396;2024-01-30T08:58:18;102619.28;;;5.15;81.81
60417;BME280;46263;44.726;10.396;2024-01-30T09:00:44;102623.31;;;5.46;81.38
60417;BME280;46263;44.726;10.396;2024-01-30T09:03:10;102622.00;;;5.66;80.08
60417;BME280;46263;44.726;10.396;2024-01-30T09:05:35;102618.78;;;5.51;80.45
60417;BME280;46263;44.726;10.396;2024-01-30T09:08:01;102617.84;;;5.58;80.75
60417;BME280;46263;44.726;10.396;2024-01-30T09:10:26;102625.47;;;5.54;82.16
60417;BME280;46263;44.726;10.396;2024-01-30T09:12:52;102629.03;;;5.39;82.96
60417;BME280;46263;44.726;10.396;2024-01-30T09:15:17;102628.41;;;5.47;83.24
60417;BME280;46263;44.726;10.396;2024-01-30T09:17:44;102625.63;;;5.31;85.57
60417;BME280;46263;44.726;10.396;2024-01-30T09:20:10;102631.28;;;5.59;84.77
60417;BME280;46263;44.726;10.396;2024-01-30T09:22:35;102633.88;;;5.66;83.49
60417;BME280;46263;44.726;10.396;2024-01-30T09:25:01;102636.34;;;5.80;82.76
60417;BME280;46263;44.726;10.396;2024-01-30T09:27:26;102628.84;;;6.09;81.53
60417;BME280;46263;44.726;10.396;2024-01-30T09:29:52;102635.03;;;6.29;81.18
60417;BME280;46263;44.726;10.396;2024-01-30T09:32:17;102634.91;;;6.48;79.97
60417;BME280;46263;44.726;10.396;2024-01-30T09:34:43;102638.69;;;6.54;80.42
60417;BME280;46263;44.726;10.396;2024-01-30T09:37:09;102645.34;;;6.57;81.06
60417;BME280;46263;44.726;10.396;2024-01-30T09:39:34;102654.28;;;6.64;80.06
60417;BME280;46263;44.726;10.396;2024-01-30T09:44:43;102644.44;;;6.88;79.79
60417;BME280;46263;44.726;10.396;2024-01-30T09:47:09;102645.75;;;6.84;81.07
60417;BME280;46263;44.726;10.396;2024-01-30T09:49:35;102644.44;;;6.88;81.34
60417;BME280;46263;44.726;10.396;2024-01-30T09:52:05;102644.22;;;6.83;81.31
60417;BME280;46263;44.726;10.396;2024-01-30T09:54:32;102642.03;;;7.03;80.96
60417;BME280;46263;44.726;10.396;2024-01-30T09:56:58;102639.47;;;7.08;80.06
60417;BME280;46263;44.726;10.396;2024-01-30T09:59:24;102648.25;;;7.19;80.43
60417;BME280;46263;44.726;10.396;2024-01-30T10:01:50;102645.22;;;6.89;80.81
60417;BME280;46263;44.726;10.396;2024-01-30T10:04:16;102643.69;;;7.12;80.69
60417;BME280;46263;44.726;10.396;2024-01-30T10:06:42;102640.66;;;6.82;80.88
60417;BME280;46263;44.726;10.396;2024-01-30T10:09:07;102638.13;;;7.12;81.28
60417;BME280;46263;44.726;10.396;2024-01-30T10:11:33;102644.47;;;7.01;81.38
60417;BME280;46263;44.726;10.396;2024-01-30T10:14:00;102646.16;;;7.11;81.93
60417;BME280;46263;44.726;10.396;2024-01-30T10:16:25;102645.69;;;7.12;81.80
60417;BME280;46263;44.726;10.396;2024-01-30T10:18:51;102643.34;;;7.35;84.99
60417;BME280;46263;44.726;10.396;2024-01-30T10:21:17;102643.38;;;7.11;86.15
60417;BME280;46263;44.726;10.396;2024-01-30T10:23:43;102641.03;;;7.21;86.10
60417;BME280;46263;44.726;10.396;2024-01-30T10:26:09;102624.91;;;7.16;86.86
60417;BME280;46263;44.726;10.396;2024-01-30T10:28:35;102629.69;;;7.28;86.39
60417;BME280;46263;44.726;10.396;2024-01-30T10:31:01;102631.69;;;7.15;87.99
60417;BME280;46263;44.726;10.396;2024-01-30T10:33:27;102631.56;;;7.56;86.39
60417;BME280;46263;44.726;10.396;2024-01-30T10:35:56;102622.00;;;7.70;83.36
60417;BME280;46263;44.726;10.396;2024-01-30T10:38:30;102625.00;;;7.75;83.36
60417;BME280;46263;44.726;10.396;2024-01-30T10:40:57;102619.97;;;7.70;84.53
60417;BME280;46263;44.726;10.396;2024-01-30T10:43:22;102626.53;;;7.76;83.74
60417;BME280;46263;44.726;10.396;2024-01-30T10:45:52;102620.19;;;7.76;80.63
60417;BME280;46263;44.726;10.396;2024-01-30T10:48:21;102612.84;;;7.69;80.94
60417;BME280;46263;44.726;10.396;2024-01-30T10:50:51;102615.19;;;7.71;80.18
60417;BME280;46263;44.726;10.396;2024-01-30T10:53:19;102600.59;;;7.79;80.24
60417;BME280;46263;44.726;10.396;2024-01-30T10:55:45;102600.19;;;8.02;79.44
60417;BME280;46263;44.726;10.396;2024-01-30T10:58:12;102598.81;;;8.19;79.61
60417;BME280;46263;44.726;10.396;2024-01-30T11:00:40;102598.19;;;8.15;79.22
60417;BME280;46263;44.726;10.396;2024-01-30T11:03:07;102588.78;;;8.09;78.49
60417;BME280;46263;44.726;10.396;2024-01-30T11:05:33;102593.47;;;8.12;78.87
60417;BME280;46263;44.726;10.396;2024-01-30T11:07:58;102593.19;;;7.97;78.77
60417;BME280;46263;44.726;10.396;2024-01-30T11:10:24;102596.53;;;7.92;80.36
60417;BME280;46263;44.726;10.396;2024-01-30T11:12:50;102588.13;;;8.17;79.62
60417;BME280;46263;44.726;10.396;2024-01-30T11:15:16;102581.41;;;8.27;79.89
60417;BME280;46263;44.726;10.396;2024-01-30T11:20:29;102581.78;;;8.17;79.07
60417;BME280;46263;44.726;10.396;2024-01-30T11:22:59;102576.69;;;8.37;78.30
60417;BME280;46263;44.726;10.396;2024-01-30T11:25:25;102571.69;;;8.32;78.18
60417;BME280;46263;44.726;10.396;2024-01-30T11:27:53;102568.78;;;8.35;77.88
60417;BME280;46263;44.726;10.396;2024-01-30T11:30:32;102561.50;;;8.16;79.14
60417;BME280;46263;44.726;10.396;2024-01-30T11:33:02;102565.06;;;8.17;79.78
60417;BME280;46263;44.726;10.396;2024-01-30T11:38:04;102563.91;;;8.27;79.71
60417;BME280;46263;44.726;10.396;2024-01-30T11:40:30;102565.47;;;8.28;79.73
60417;BME280;46263;44.726;10.396;2024-01-30T11:42:58;102554.72;;;8.39;79.87
60417;BME280;46263;44.726;10.396;2024-01-30T11:45:24;102551.38;;;8.74;79.14
60417;BME280;46263;44.726;10.396;2024-01-30T11:47:49;102549.31;;;8.44;79.33
60417;BME280;46263;44.726;10.396;2024-01-30T11:50:15;102545.56;;;8.60;78.81
60417;BME280;46263;44.726;10.396;2024-01-30T11:52:41;102546.00;;;8.58;78.08
60417;BME280;46263;44.726;10.396;2024-01-30T11:55:09;102541.88;;;8.63;78.40
60417;BME280;46263;44.726;10.396;2024-01-30T11:57:34;102528.00;;;8.80;78.48
60417;BME280;46263;44.726;10.396;2024-01-30T12:00:03;102537.28;;;9.08;78.50
60417;BME280;46263;44.726;10.396;2024-01-30T12:02:39;102530.63;;;9.14;76.96
60417;BME280;46263;44.726;10.396;2024-01-30T12:05:08;102528.41;;;9.00;77.04
60417;BME280;46263;44.726;10.396;2024-01-30T12:07:34;102530.91;;;8.68;77.76
60417;BME280;46263;44.726;10.396;2024-01-30T12:10:00;102528.72;;;9.02;77.99
60417;BME280;46263;44.726;10.396;2024-01-30T12:12:27;102521.81;;;9.16;76.95
60417;BME280;46263;44.726;10.396;2024-01-30T12:14:53;102517.03;;;9.34;76.65
60417;BME280;46263;44.726;10.396;2024-01-30T12:17:32;102508.53;;;9.47;76.80
60417;BME280;46263;44.726;10.396;2024-01-30T12:20:10;102503.84;;;9.35;76.61
60417;BME280;46263;44.726;10.396;2024-01-30T12:22:37;102506.19;;;9.27;77.11
60417;BME280;46263;44.726;10.396;2024-01-30T12:25:12;102502.44;;;9.30;76.68
60417;BME280;46263;44.726;10.396;2024-01-30T12:27:39;102497.06;;;9.45;76.34
60417;BME280;46263;44.726;10.396;2024-01-30T12:30:14;102490.09;;;9.67;75.73
60417;BME280;46263;44.726;10.396;2024-01-30T12:32:41;102478.78;;;9.88;75.31
60417;BME280;46263;44.726;10.396;2024-01-30T12:35:10;102476.13;;;9.94;75.46
60417;BME280;46263;44.726;10.396;2024-01-30T12:37:35;102474.72;;;10.16;74.92
60417;BME280;46263;44.726;10.396;2024-01-30T12:40:01;102474.72;;;10.25;74.71
60417;BME280;46263;44.726;10.396;2024-01-30T12:42:27;102472.88;;;10.13;74.60
60417;BME280;46263;44.726;10.396;2024-01-30T12:44:53;102463.56;;;9.98;75.29
60417;BME280;46263;44.726;10.396;2024-01-30T12:47:21;102457.03;;;10.19;74.76
60417;BME280;46263;44.726;10.396;2024-01-30T12:49:47;102463.41;;;10.11;73.16
60417;BME280;46263;44.726;10.396;2024-01-30T12:52:13;102455.72;;;10.38;72.60